createdAt,value
2019-04-25T00:00:52.593Z,63.96
2019-04-25T00:01:52.582Z,64.46
2019-04-25T00:02:52.578Z,64.56
2019-04-25T00:03:53.397Z,65.27
2019-04-25T00:04:52.591Z,65.07
2019-04-25T00:05:52.547Z,64.56
2019-04-25T00:06:52.532Z,65.24
2019-04-25T00:07:52.518Z,65.04
2019-04-25T00:08:53.485Z,65.37
2019-04-25T00:09:52.532Z,65.24
2019-04-25T00:10:52.481Z,65.07
2019-04-25T00:11:52.479Z,65.17
2019-04-25T00:12:52.464Z,65.17
2019-04-25T00:13:52.462Z,65.57
2019-04-25T00:14:52.474Z,65.47
2019-04-25T00:15:52.437Z,65.17
2019-04-25T00:16:52.418Z,64.73
2019-04-25T00:17:52.422Z,65.17
2019-04-25T00:18:52.393Z,64.76
2019-04-25T00:19:52.827Z,65.04
2019-04-25T00:20:52.416Z,64.67
2019-04-25T00:21:52.365Z,65.27
2019-04-25T00:22:53.400Z,65.07
2019-04-25T00:23:52.335Z,65.27
2019-04-25T00:24:53.000Z,65.98
2019-04-25T00:25:52.798Z,65.88
2019-04-25T00:26:53.493Z,65.78
2019-04-25T00:27:53.180Z,65.47
2019-04-25T00:28:52.654Z,65.27
2019-04-25T00:29:52.954Z,65.17
2019-04-25T00:30:53.107Z,65.47
2019-04-25T00:31:53.189Z,65.47
2019-04-25T00:32:52.239Z,65.88
2019-04-25T00:33:53.309Z,65.47
2019-04-25T00:34:52.839Z,65.47
2019-04-25T00:35:52.798Z,66.38
2019-04-25T00:36:53.136Z,66.38
2019-04-25T00:37:52.560Z,66.38
2019-04-25T00:38:53.247Z,66.48
2019-04-25T00:39:52.163Z,66.38
2019-04-25T00:40:53.518Z,65.67
2019-04-25T00:41:52.145Z,66.08
2019-04-25T00:42:53.668Z,66.58
2019-04-25T00:43:52.643Z,67.60
2019-04-25T00:44:52.506Z,67.49
2019-04-25T00:45:52.727Z,67.90
2019-04-25T00:46:56.174Z,68.51
2019-04-25T00:47:52.936Z,68.30
2019-04-25T00:48:52.708Z,68.10
2019-04-25T00:49:52.429Z,68.57
2019-04-25T00:50:54.586Z,68.30
2019-04-25T00:51:53.009Z,68.71
2019-04-25T00:52:53.580Z,69.42
2019-04-25T00:53:54.729Z,69.42
2019-04-25T00:54:52.637Z,69.62
2019-04-25T00:55:53.622Z,69.71
2019-04-25T00:56:52.756Z,69.14
2019-04-25T00:57:52.821Z,69.04
2019-04-25T00:58:53.141Z,69.34
2019-04-25T00:59:53.165Z,69.34
2019-04-25T01:00:53.346Z,69.85
2019-04-25T01:01:53.257Z,70.46
2019-04-25T01:02:53.398Z,70.76
2019-04-25T01:03:53.632Z,71.37
2019-04-25T01:04:52.969Z,71.06
2019-04-25T01:05:53.308Z,71.17
2019-04-25T01:06:52.900Z,71.57
2019-04-25T01:07:53.250Z,71.47
2019-04-25T01:08:54.566Z,71.06
2019-04-25T01:09:52.495Z,71.26
2019-04-25T01:10:52.317Z,71.57
2019-04-25T01:11:52.364Z,70.96
2019-04-25T01:12:52.344Z,71.30
2019-04-25T01:13:52.517Z,71.37
2019-04-25T01:14:52.846Z,71.17
2019-04-25T01:15:52.877Z,70.96
2019-04-25T01:16:53.012Z,71.17
2019-04-25T01:17:52.613Z,71.37
2019-04-25T01:18:51.727Z,71.20
2019-04-25T01:19:51.709Z,71.70
2019-04-25T01:20:53.311Z,71.60
2019-04-25T01:21:51.723Z,71.50
2019-04-25T01:22:51.678Z,71.60
2019-04-25T01:23:53.280Z,71.20
2019-04-25T01:24:51.659Z,71.09
2019-04-25T01:25:53.434Z,71.60
2019-04-25T01:26:51.708Z,71.50
2019-04-25T01:27:52.330Z,72.31
2019-04-25T01:28:51.890Z,71.50
2019-04-25T01:29:51.988Z,72.01
2019-04-25T01:30:52.082Z,72.21
2019-04-25T01:31:52.682Z,72.14
2019-04-25T01:32:52.921Z,72.01
2019-04-25T01:33:52.816Z,71.50
2019-04-25T01:34:54.683Z,71.44
2019-04-25T01:35:54.286Z,72.72
2019-04-25T01:36:51.568Z,71.91
2019-04-25T01:37:51.513Z,71.64
2019-04-25T01:38:53.630Z,72.41
2019-04-25T01:39:51.482Z,72.51
2019-04-25T01:40:53.076Z,72.61
2019-04-25T01:41:51.466Z,72.61
2019-04-25T01:42:51.631Z,72.11
2019-04-25T01:43:53.233Z,72.41
2019-04-25T01:44:54.217Z,72.61
2019-04-25T01:45:51.835Z,72.11
2019-04-25T01:46:51.871Z,72.21
2019-04-25T01:47:52.472Z,71.80
2019-04-25T01:48:52.630Z,71.70
2019-04-25T01:49:52.271Z,71.91
2019-04-25T01:50:52.788Z,72.51
2019-04-25T01:51:52.390Z,72.51
2019-04-25T01:52:51.376Z,72.41
2019-04-25T01:53:51.333Z,72.51
2019-04-25T01:54:51.325Z,72.81
2019-04-25T01:55:58.097Z,72.41
2019-04-25T01:56:53.575Z,71.70
2019-04-25T01:57:51.313Z,72.11
2019-04-25T01:58:51.292Z,72.01
2019-04-25T01:59:51.428Z,72.01
2019-04-25T02:00:52.081Z,72.11
2019-04-25T02:01:51.243Z,72.11
2019-04-25T02:02:51.259Z,72.01
2019-04-25T02:03:51.287Z,71.80
2019-04-25T02:04:51.435Z,71.30
2019-04-25T02:05:51.406Z,71.60
2019-04-25T02:06:51.479Z,71.67
2019-04-25T02:07:51.508Z,72.51
2019-04-25T02:08:51.731Z,72.72
2019-04-25T02:09:52.276Z,72.81
2019-04-25T02:10:51.137Z,71.37
2019-04-25T02:11:51.127Z,72.58
2019-04-25T02:12:51.391Z,72.78
2019-04-25T02:13:51.484Z,72.38
2019-04-25T02:14:51.946Z,72.38
2019-04-25T02:15:52.165Z,72.58
2019-04-25T02:16:51.780Z,72.78
2019-04-25T02:17:51.882Z,73.39
2019-04-25T02:18:51.928Z,73.08
2019-04-25T02:19:51.974Z,73.49
2019-04-25T02:20:52.254Z,73.19
2019-04-25T02:21:51.453Z,73.59
2019-04-25T02:22:51.532Z,73.08
2019-04-25T02:23:51.625Z,71.97
2019-04-25T02:24:51.828Z,72.21
2019-04-25T02:26:04.485Z,71.40
2019-04-25T02:26:53.240Z,71.91
2019-04-25T02:27:50.985Z,72.61
2019-04-25T02:28:50.941Z,71.91
2019-04-25T02:29:50.923Z,72.41
2019-04-25T02:30:50.915Z,72.01
2019-04-25T02:31:50.898Z,71.40
2019-04-25T02:32:50.930Z,72.11
2019-04-25T02:33:50.880Z,72.31
2019-04-25T02:34:50.869Z,72.41
2019-04-25T02:35:50.859Z,72.61
2019-04-25T02:36:50.842Z,73.02
2019-04-25T02:37:50.867Z,73.12
2019-04-25T02:38:50.821Z,73.32
2019-04-25T02:39:50.817Z,73.52
2019-04-25T02:40:50.804Z,73.63
2019-04-25T02:41:50.790Z,73.66
2019-04-25T02:42:50.809Z,74.27
2019-04-25T02:43:50.766Z,74.37
2019-04-25T02:44:50.751Z,74.37
2019-04-25T02:45:50.748Z,74.27
2019-04-25T02:46:50.735Z,74.47
2019-04-25T02:47:50.727Z,74.47
2019-04-25T02:48:50.741Z,74.67
2019-04-25T02:49:50.735Z,75.11
2019-04-25T02:50:50.692Z,74.71
2019-04-25T02:51:50.683Z,75.01
2019-04-25T02:52:50.670Z,75.62
2019-04-25T02:53:50.682Z,75.52
2019-04-25T02:54:50.647Z,75.42
2019-04-25T02:55:50.631Z,75.52
2019-04-25T02:56:50.618Z,75.42
2019-04-25T02:57:50.606Z,75.72
2019-04-25T02:58:50.630Z,75.42
2019-04-25T02:59:50.586Z,75.31
2019-04-25T03:00:59.863Z,75.31
2019-04-25T03:01:54.031Z,75.72
2019-04-25T03:02:50.563Z,75.42
2019-04-25T03:03:50.574Z,75.42
2019-04-25T03:04:50.552Z,75.62
2019-04-25T03:05:50.517Z,76.03
2019-04-25T03:06:50.516Z,76.12
2019-04-25T03:07:50.526Z,76.12
2019-04-25T03:08:50.512Z,76.32
2019-04-25T03:09:50.476Z,75.72
2019-04-25T03:10:50.466Z,76.12
2019-04-25T03:11:50.447Z,76.23
2019-04-25T03:12:50.442Z,76.32
2019-04-25T03:13:50.459Z,76.03
2019-04-25T03:14:50.422Z,76.23
2019-04-25T03:15:52.781Z,76.73
2019-04-25T03:16:50.390Z,76.12
2019-04-25T03:17:50.384Z,76.73
2019-04-25T03:18:50.402Z,76.63
2019-04-25T03:19:50.361Z,76.32
2019-04-25T03:20:50.350Z,76.23
2019-04-25T03:21:50.341Z,76.23
2019-04-25T03:22:50.347Z,76.19
2019-04-25T03:23:50.317Z,76.19
2019-04-25T03:24:50.335Z,76.09
2019-04-25T03:25:50.288Z,75.79
2019-04-25T03:26:50.286Z,75.82
2019-04-25T03:27:50.271Z,75.31
2019-04-25T03:28:50.256Z,75.52
2019-04-25T03:29:50.274Z,75.62
2019-04-25T03:30:50.267Z,75.52
2019-04-25T03:31:50.221Z,74.91
2019-04-25T03:32:51.631Z,74.51
2019-04-25T03:33:50.203Z,74.30
2019-04-25T03:34:50.235Z,74.40
2019-04-25T03:35:50.181Z,73.69
2019-04-25T03:36:50.168Z,73.29
2019-04-25T03:37:50.155Z,72.88
2019-04-25T03:38:50.155Z,72.68
2019-04-25T03:39:50.180Z,72.44
2019-04-25T03:40:50.129Z,72.14
2019-04-25T03:41:50.107Z,72.08
2019-04-25T03:42:50.100Z,71.37
2019-04-25T03:43:50.085Z,72.24
2019-04-25T03:44:50.119Z,71.77
2019-04-25T03:45:50.063Z,71.88
2019-04-25T03:46:50.055Z,71.88
2019-04-25T03:47:50.039Z,71.47
2019-04-25T03:48:50.028Z,71.16
2019-04-25T03:49:50.055Z,71.67
2019-04-25T03:50:50.012Z,71.37
2019-04-25T03:51:50.000Z,71.97
2019-04-25T03:52:49.997Z,71.57
2019-04-25T03:53:49.986Z,72.08
2019-04-25T03:54:49.996Z,71.88
2019-04-25T03:55:49.949Z,72.17
2019-04-25T03:56:55.455Z,72.17
2019-04-25T03:57:50.930Z,72.21
2019-04-25T03:58:49.915Z,72.28
2019-04-25T03:59:49.941Z,71.70
2019-04-25T04:00:49.916Z,72.41
2019-04-25T04:01:49.893Z,71.50
2019-04-25T04:02:49.875Z,71.60
2019-04-25T04:03:49.870Z,71.70
2019-04-25T04:04:49.884Z,72.21
2019-04-25T04:05:49.842Z,71.60
2019-04-25T04:06:49.832Z,71.40
2019-04-25T04:07:49.824Z,71.30
2019-04-25T04:08:49.805Z,71.70
2019-04-25T04:09:49.822Z,72.01
2019-04-25T04:10:49.784Z,71.50
2019-04-25T04:11:49.771Z,71.64
2019-04-25T04:12:49.765Z,71.40
2019-04-25T04:13:49.751Z,71.70
2019-04-25T04:14:49.784Z,71.80
2019-04-25T04:15:49.732Z,71.64
2019-04-25T04:16:49.712Z,71.64
2019-04-25T04:17:49.726Z,72.14
2019-04-25T04:18:49.695Z,71.53
2019-04-25T04:19:49.678Z,71.64
2019-04-25T04:20:49.716Z,71.23
2019-04-25T04:21:49.670Z,71.44
2019-04-25T04:22:49.648Z,72.45
2019-04-25T04:23:49.634Z,72.34
2019-04-25T04:24:49.630Z,72.34
2019-04-25T04:25:49.642Z,71.84
2019-04-25T04:26:49.612Z,71.94
2019-04-25T04:27:49.593Z,72.85
2019-04-25T04:28:49.584Z,72.85
2019-04-25T04:29:49.593Z,72.96
2019-04-25T04:30:49.593Z,72.85
2019-04-25T04:31:49.558Z,73.16
2019-04-25T04:32:49.538Z,73.16
2019-04-25T04:33:49.522Z,73.90
2019-04-25T04:34:49.515Z,73.60
2019-04-25T04:35:49.535Z,73.60
2019-04-25T04:36:49.497Z,74.00
2019-04-25T04:37:49.476Z,74.71
2019-04-25T04:38:49.554Z,74.51
2019-04-25T04:39:49.461Z,74.41
2019-04-25T04:40:49.474Z,74.61
2019-04-25T04:41:49.469Z,74.71
2019-04-25T04:42:49.429Z,74.71
2019-04-25T04:43:49.420Z,74.71
2019-04-25T04:44:49.399Z,74.51
2019-04-25T04:45:49.424Z,74.81
2019-04-25T04:46:49.382Z,74.71
2019-04-25T04:47:49.367Z,74.41
2019-04-25T04:48:49.360Z,74.65
2019-04-25T04:49:49.352Z,74.85
2019-04-25T04:50:49.361Z,74.95
2019-04-25T04:51:49.320Z,74.44
2019-04-25T04:52:49.310Z,74.44
2019-04-25T04:53:49.301Z,74.65
2019-04-25T04:54:49.286Z,74.74
2019-04-25T04:55:49.316Z,74.04
2019-04-25T04:56:49.274Z,73.43
2019-04-25T04:57:49.255Z,73.46
2019-04-25T04:58:49.249Z,73.77
2019-04-25T04:59:49.236Z,73.46
2019-04-25T05:00:49.276Z,73.57
2019-04-25T05:01:49.219Z,73.66
2019-04-25T05:02:49.205Z,74.07
2019-04-25T05:03:49.195Z,73.87
2019-04-25T05:04:49.177Z,73.36
2019-04-25T05:05:49.201Z,72.96
2019-04-25T05:06:49.154Z,73.06
2019-04-25T05:07:49.142Z,72.75
2019-04-25T05:08:49.138Z,72.75
2019-04-25T05:09:49.119Z,72.96
2019-04-25T05:10:49.152Z,72.85
2019-04-25T05:11:49.103Z,72.45
2019-04-25T05:12:49.089Z,71.77
2019-04-25T05:13:49.081Z,72.69
2019-04-25T05:14:49.065Z,72.78
2019-04-25T05:15:49.085Z,72.78
2019-04-25T05:16:49.599Z,72.78
2019-04-25T05:17:49.040Z,72.89
2019-04-25T05:18:49.020Z,72.58
2019-04-25T05:19:49.018Z,72.78
2019-04-25T05:20:49.039Z,72.75
2019-04-25T05:21:48.991Z,72.85
2019-04-25T05:22:48.977Z,73.06
2019-04-25T05:23:48.980Z,72.69
2019-04-25T05:24:48.955Z,72.38
2019-04-25T05:25:48.975Z,72.38
2019-04-25T05:26:48.930Z,72.04
2019-04-25T05:27:59.448Z,72.17
2019-04-25T05:28:49.909Z,73.09
2019-04-25T05:29:48.905Z,72.08
2019-04-25T05:30:48.915Z,71.77
2019-04-25T05:31:48.873Z,72.28
2019-04-25T05:32:48.928Z,72.48
2019-04-25T05:33:48.859Z,72.28
2019-04-25T05:34:49.415Z,72.69
2019-04-25T05:35:48.879Z,72.28
2019-04-25T05:36:48.826Z,72.78
2019-04-25T05:37:48.813Z,72.78
2019-04-25T05:38:48.802Z,72.38
2019-04-25T05:39:48.787Z,72.17
2019-04-25T05:40:48.780Z,72.28
2019-04-25T05:41:48.796Z,72.28
2019-04-25T05:42:48.752Z,72.38
2019-04-25T05:43:48.739Z,72.17
2019-04-25T05:44:48.733Z,72.08
2019-04-25T05:45:48.721Z,71.77
2019-04-25T05:46:48.743Z,72.38
2019-04-25T05:47:48.700Z,72.34
2019-04-25T05:48:48.685Z,72.04
2019-04-25T05:49:48.680Z,71.53
2019-04-25T05:50:48.663Z,71.73
2019-04-25T05:51:48.691Z,71.53
2019-04-25T05:52:48.641Z,71.23
2019-04-25T05:53:48.628Z,71.23
2019-04-25T05:54:48.617Z,71.50
2019-04-25T05:55:48.611Z,71.50
2019-04-25T05:56:48.637Z,71.00
2019-04-25T05:57:50.201Z,70.79
2019-04-25T05:58:48.580Z,71.00
2019-04-25T05:59:48.566Z,70.18
2019-04-25T06:00:48.558Z,70.15
2019-04-25T06:01:48.574Z,70.05
2019-04-25T06:02:48.536Z,69.95
2019-04-25T06:03:48.531Z,69.51
2019-04-25T06:04:48.509Z,69.20
2019-04-25T06:05:48.508Z,69.41
2019-04-25T06:06:48.561Z,69.41
2019-04-25T06:07:48.493Z,69.31
2019-04-25T06:08:48.468Z,69.00
2019-04-25T06:09:48.458Z,68.70
2019-04-25T06:10:48.441Z,68.40
2019-04-25T06:11:48.469Z,68.60
2019-04-25T06:12:48.434Z,68.56
2019-04-25T06:13:48.403Z,68.46
2019-04-25T06:14:48.393Z,68.16
2019-04-25T06:15:48.380Z,68.16
2019-04-25T06:16:48.400Z,67.52
2019-04-25T06:17:48.372Z,66.94
2019-04-25T06:18:48.356Z,67.32
2019-04-25T06:19:48.344Z,67.32
2019-04-25T06:20:48.324Z,66.61
2019-04-25T06:21:48.343Z,66.61
2019-04-25T06:22:48.306Z,65.80
2019-04-25T06:23:48.303Z,65.80
2019-04-25T06:24:48.338Z,65.70
2019-04-25T06:25:48.267Z,65.09
2019-04-25T06:26:48.321Z,65.19
2019-04-25T06:27:56.528Z,64.65
2019-04-25T06:28:57.076Z,64.04
2019-04-25T06:29:58.059Z,63.95
2019-04-25T06:30:49.218Z,64.04
2019-04-25T06:31:48.208Z,63.44
2019-04-25T06:32:48.243Z,63.24
2019-04-25T06:33:48.294Z,62.23
2019-04-25T06:34:48.171Z,62.53
2019-04-25T06:35:48.176Z,62.84
2019-04-25T06:36:48.144Z,62.53
2019-04-25T06:37:48.166Z,62.93
2019-04-25T06:38:48.122Z,62.84
2019-04-25T06:39:48.115Z,62.43
2019-04-25T06:40:48.098Z,62.43
2019-04-25T06:41:48.093Z,62.84
2019-04-25T06:42:48.115Z,62.53
2019-04-25T06:43:48.074Z,62.53
2019-04-25T06:44:48.054Z,62.73
2019-04-25T06:45:50.163Z,62.23
2019-04-25T06:46:48.038Z,62.23
2019-04-25T06:47:48.053Z,62.53
2019-04-25T06:48:48.014Z,62.43
2019-04-25T06:49:48.002Z,61.82
2019-04-25T06:50:47.994Z,62.63
2019-04-25T06:51:47.996Z,62.43
2019-04-25T06:52:48.000Z,62.02
2019-04-25T06:53:47.958Z,61.21
2019-04-25T06:54:47.945Z,61.52
2019-04-25T06:55:47.936Z,60.61
2019-04-25T06:56:47.919Z,59.90
2019-04-25T06:57:47.953Z,60.10
2019-04-25T06:58:47.902Z,60.00
2019-04-25T06:59:47.888Z,59.36
2019-04-25T07:00:57.989Z,59.87
2019-04-25T07:01:48.872Z,59.67
2019-04-25T07:02:47.900Z,60.38
2019-04-25T07:03:47.853Z,61.29
2019-04-25T07:04:47.831Z,61.92
2019-04-25T07:05:47.833Z,62.53
2019-04-25T07:06:49.473Z,62.53
2019-04-25T07:07:47.841Z,62.23
2019-04-25T07:08:47.801Z,62.73
2019-04-25T07:09:47.804Z,62.70
2019-04-25T07:10:47.764Z,60.78
2019-04-25T07:11:48.256Z,60.68
2019-04-25T07:12:47.772Z,60.58
2019-04-25T07:13:47.732Z,60.07
2019-04-25T07:14:47.723Z,60.17
2019-04-25T07:15:47.708Z,60.88
2019-04-25T07:16:47.705Z,60.58
2019-04-25T07:17:47.715Z,60.07
2019-04-25T07:18:47.672Z,60.07
2019-04-25T07:19:47.671Z,60.27
2019-04-25T07:20:47.650Z,60.58
2019-04-25T07:21:47.645Z,60.17
2019-04-25T07:22:47.634Z,59.87
2019-04-25T07:23:47.657Z,59.47
2019-04-25T07:24:47.608Z,59.47
2019-04-25T07:25:47.601Z,59.67
2019-04-25T07:26:47.606Z,59.67
2019-04-25T07:27:47.585Z,59.77
2019-04-25T07:28:47.597Z,59.36
2019-04-25T07:29:47.554Z,58.96
2019-04-25T07:30:51.960Z,58.86
2019-04-25T07:31:48.531Z,59.06
2019-04-25T07:32:47.522Z,58.76
2019-04-25T07:33:47.535Z,58.65
2019-04-25T07:34:47.498Z,59.36
2019-04-25T07:35:47.490Z,59.14
2019-04-25T07:36:47.485Z,58.93
2019-04-25T07:37:47.479Z,58.76
2019-04-25T07:38:47.492Z,59.34
2019-04-25T07:39:47.439Z,59.23
2019-04-25T07:40:47.427Z,59.14
2019-04-25T07:41:47.415Z,58.93
2019-04-25T07:42:47.404Z,59.23
2019-04-25T07:43:47.423Z,58.23
2019-04-25T07:44:52.621Z,58.12
2019-04-25T07:45:48.368Z,58.02
2019-04-25T07:46:47.370Z,58.02
2019-04-25T07:47:47.381Z,58.20
2019-04-25T07:48:47.381Z,57.69
2019-04-25T07:49:47.326Z,58.09
2019-04-25T07:50:47.317Z,58.20
2019-04-25T07:51:47.318Z,57.69
2019-04-25T07:52:47.299Z,57.36
2019-04-25T07:53:47.316Z,55.94
2019-04-25T07:54:47.271Z,56.35
2019-04-25T07:55:47.257Z,55.85
2019-04-25T07:56:47.255Z,56.35
2019-04-25T07:57:47.239Z,55.65
2019-04-25T07:58:52.224Z,55.85
2019-04-25T07:59:48.213Z,55.54
2019-04-25T08:00:47.204Z,55.32
2019-04-25T08:01:47.195Z,54.91
2019-04-25T08:02:47.179Z,55.72
2019-04-25T08:03:47.228Z,54.81
2019-04-25T08:04:47.166Z,54.58
2019-04-25T08:05:47.187Z,53.47
2019-04-25T08:06:47.142Z,53.17
2019-04-25T08:07:47.125Z,52.67
2019-04-25T08:08:47.179Z,52.87
2019-04-25T08:09:47.124Z,52.56
2019-04-25T08:10:47.091Z,53.27
2019-04-25T08:11:47.083Z,52.87
2019-04-25T08:12:47.481Z,53.27
2019-04-25T08:13:47.056Z,52.34
2019-04-25T08:14:47.086Z,50.73
2019-04-25T08:15:47.034Z,50.15
2019-04-25T08:16:47.044Z,49.92
2019-04-25T08:17:47.011Z,50.12
2019-04-25T08:18:47.000Z,50.32
2019-04-25T08:19:47.025Z,50.12
2019-04-25T08:20:46.981Z,50.52
2019-04-25T08:21:46.974Z,50.02
2019-04-25T08:22:55.855Z,50.82
2019-04-25T08:23:47.954Z,50.30
2019-04-25T08:24:46.994Z,50.10
2019-04-25T08:25:46.938Z,48.79
2019-04-25T08:26:46.918Z,49.39
2019-04-25T08:27:46.915Z,48.26
2019-04-25T08:28:55.039Z,48.89
2019-04-25T08:29:47.908Z,48.76
2019-04-25T08:30:46.881Z,47.66
2019-04-25T08:31:46.861Z,46.55
2019-04-25T08:32:46.862Z,47.25
2019-04-25T08:33:46.868Z,46.65
2019-04-25T08:34:46.860Z,46.53
2019-04-25T08:36:03.412Z,47.05
2019-04-25T08:36:47.797Z,46.93
2019-04-25T08:37:46.789Z,46.25
2019-04-25T08:38:46.786Z,47.25
2019-04-25T08:39:46.799Z,47.45
2019-04-25T08:40:46.758Z,46.75
2019-04-25T08:41:46.746Z,46.22
2019-04-25T08:42:46.731Z,45.52
2019-04-25T08:43:46.720Z,44.81
2019-04-25T08:44:46.744Z,46.12
2019-04-25T08:45:46.700Z,45.82
2019-04-25T08:46:48.673Z,47.53
2019-04-25T08:47:46.685Z,47.23
2019-04-25T08:48:46.668Z,47.23
2019-04-25T08:49:49.364Z,47.53
2019-04-25T08:50:46.661Z,47.63
2019-04-25T08:51:46.646Z,48.54
2019-04-25T08:52:46.624Z,47.94
2019-04-25T08:53:46.630Z,46.80
2019-04-25T08:54:47.711Z,45.50
2019-04-25T08:55:46.590Z,46.50
2019-04-25T08:56:46.578Z,45.79
2019-04-25T08:57:46.575Z,44.59
2019-04-25T08:58:46.561Z,43.99
2019-04-25T08:59:52.275Z,43.28
2019-04-25T09:00:58.286Z,44.79
2019-04-25T09:01:47.524Z,44.59
2019-04-25T09:02:46.522Z,44.29
2019-04-25T09:03:46.500Z,45.39
2019-04-25T09:04:46.528Z,45.39
2019-04-25T09:05:46.553Z,45.59
2019-04-25T09:06:46.465Z,45.39
2019-04-25T09:07:46.447Z,46.00
2019-04-25T09:08:46.704Z,45.50
2019-04-25T09:09:46.471Z,44.67
2019-04-25T09:10:46.415Z,43.36
2019-04-25T09:11:47.053Z,42.15
2019-04-25T09:12:46.398Z,41.95
2019-04-25T09:13:46.402Z,42.66
2019-04-25T09:14:46.516Z,43.06
2019-04-25T09:15:46.364Z,43.66
2019-04-25T09:16:46.346Z,44.37
2019-04-25T09:17:47.157Z,43.96
2019-04-25T09:18:46.527Z,44.75
2019-04-25T09:19:46.320Z,44.35
2019-04-25T09:20:46.817Z,45.25
2019-04-25T09:21:49.519Z,45.25
2019-04-25T09:22:46.296Z,45.45
2019-04-25T09:23:46.287Z,45.25
2019-04-25T09:24:46.258Z,45.03
2019-04-25T09:25:46.328Z,44.43
2019-04-25T09:26:46.243Z,43.40
2019-04-25T09:27:47.056Z,43.40
2019-04-25T09:28:46.702Z,43.50
2019-04-25T09:29:46.543Z,43.60
2019-04-25T09:30:46.238Z,43.18
2019-04-25T09:31:46.183Z,42.38
2019-04-25T09:32:46.172Z,43.28
2019-04-25T09:33:46.749Z,42.88
2019-04-25T09:34:46.153Z,42.18
2019-04-25T09:35:46.164Z,42.18
2019-04-25T09:36:46.693Z,42.88
2019-04-25T09:37:46.234Z,43.78
2019-04-25T09:38:48.516Z,44.18
2019-04-25T09:39:46.090Z,44.68
2019-04-25T09:40:46.685Z,44.18
2019-04-25T09:41:46.219Z,43.56
2019-04-25T09:42:46.320Z,42.86
2019-04-25T09:43:46.913Z,42.76
2019-04-25T09:44:46.651Z,43.36
2019-04-25T09:45:46.115Z,43.66
2019-04-25T09:46:46.897Z,43.24
2019-04-25T09:47:46.019Z,43.54
2019-04-25T09:48:46.764Z,42.03
2019-04-25T09:49:46.286Z,41.83
2019-04-25T09:50:46.381Z,41.82
2019-04-25T09:51:46.780Z,41.74
2019-04-25T09:52:47.038Z,41.93
2019-04-25T09:53:50.967Z,41.33
2019-04-25T09:54:46.929Z,40.53
2019-04-25T09:55:47.234Z,39.93
2019-04-25T09:56:46.115Z,39.62
2019-04-25T09:57:46.020Z,39.73
2019-04-25T09:58:48.309Z,39.23
2019-04-25T09:59:46.206Z,38.42
2019-04-25T10:00:46.005Z,38.92
2019-04-25T10:01:46.190Z,39.81
2019-04-25T10:02:45.831Z,38.70
2019-04-25T10:03:45.824Z,37.50
2019-04-25T10:04:46.370Z,37.20
2019-04-25T10:05:46.840Z,36.80
2019-04-25T10:06:46.090Z,37.20
2019-04-25T10:07:46.347Z,36.60
2019-04-25T10:08:46.341Z,36.98
2019-04-25T10:09:46.247Z,36.98
2019-04-25T10:10:46.705Z,36.28
2019-04-25T10:11:46.561Z,37.48
2019-04-25T10:12:45.725Z,35.78
2019-04-25T10:13:46.542Z,36.18
2019-04-25T10:14:47.909Z,36.48
2019-04-25T10:15:45.728Z,35.89
2019-04-25T10:16:45.711Z,36.48
2019-04-25T10:17:46.243Z,34.78
2019-04-25T10:18:45.899Z,35.06
2019-04-25T10:19:45.648Z,35.26
2019-04-25T10:20:46.306Z,35.36
2019-04-25T10:21:45.652Z,35.46
2019-04-25T10:22:46.557Z,34.94
2019-04-25T10:23:46.744Z,34.74
2019-04-25T10:24:58.410Z,33.93
2019-04-25T10:25:46.610Z,34.33
2019-04-25T10:26:46.366Z,33.73
2019-04-25T10:27:48.174Z,34.91
2019-04-25T10:28:45.538Z,35.71
2019-04-25T10:29:50.936Z,36.41
2019-04-25T10:30:46.907Z,36.21
2019-04-25T10:31:45.541Z,37.11
2019-04-25T10:32:46.279Z,33.01
2019-04-25T10:33:46.955Z,32.91
2019-04-25T10:34:46.197Z,31.51
2019-04-25T10:35:50.810Z,32.01
2019-04-25T10:36:46.827Z,32.50
2019-04-25T10:37:46.501Z,34.21
2019-04-25T10:39:01.399Z,35.31
2019-04-25T10:39:46.422Z,36.49
2019-04-25T10:40:47.169Z,36.49
2019-04-25T10:41:46.751Z,36.28
2019-04-25T10:42:48.070Z,36.08
2019-04-25T10:43:46.085Z,36.29
2019-04-25T10:44:47.011Z,35.69
2019-04-25T10:45:46.336Z,35.10
2019-04-25T10:46:47.135Z,35.69
2019-04-25T10:47:45.339Z,36.60
2019-04-25T10:48:46.037Z,36.78
2019-04-25T10:49:45.937Z,36.98
2019-04-25T10:50:46.900Z,36.99
2019-04-25T10:51:45.812Z,36.68
2019-04-25T10:52:46.174Z,35.89
2019-04-25T10:53:46.771Z,36.56
2019-04-25T10:54:46.490Z,30.63
2019-04-25T10:55:45.489Z,29.04
2019-04-25T10:56:47.007Z,24.57
2019-04-25T10:57:46.409Z,20.94
2019-04-25T10:58:46.673Z,20.87
2019-04-25T10:59:55.269Z,19.82
2019-04-25T11:00:47.506Z,19.28
2019-04-25T11:01:46.352Z,18.85
2019-04-25T11:02:46.131Z,18.15
2019-04-25T11:03:45.565Z,17.62
2019-04-25T11:04:47.426Z,16.91
2019-04-25T11:05:45.231Z,15.44
2019-04-25T11:06:45.553Z,13.78
2019-04-25T11:07:45.115Z,13.97
2019-04-25T11:08:45.097Z,13.69
2019-04-25T11:09:46.781Z,14.99
2019-04-25T11:10:47.489Z,16.41
2019-04-25T11:11:45.849Z,17.61
2019-04-25T11:12:45.422Z,18.02
2019-04-25T11:13:45.316Z,18.59
2019-04-25T11:14:45.047Z,18.25
2019-04-25T11:15:45.030Z,17.25
2019-04-25T11:16:45.634Z,16.15
2019-04-25T11:17:45.908Z,16.61
2019-04-25T11:18:46.144Z,15.62
2019-04-25T11:19:44.998Z,15.53
2019-04-25T11:20:44.986Z,15.52
2019-04-25T11:21:45.628Z,16.18
2019-04-25T11:22:45.885Z,15.48
2019-04-25T11:23:47.663Z,15.66
2019-04-25T11:24:45.766Z,15.35
2019-04-25T11:25:45.922Z,15.06
2019-04-25T11:26:48.346Z,14.18
2019-04-25T11:27:47.336Z,14.36
2019-04-25T11:28:45.357Z,14.74
2019-04-25T11:29:45.977Z,15.61
2019-04-25T11:30:45.865Z,15.70
2019-04-25T11:31:45.920Z,14.06
2019-04-25T11:32:45.210Z,14.45
2019-04-25T11:33:44.885Z,14.17
2019-04-25T11:34:47.084Z,14.55
2019-04-25T11:35:46.799Z,14.74
2019-04-25T11:36:45.319Z,14.06
2019-04-25T11:37:44.878Z,14.45
2019-04-25T11:38:45.305Z,15.12
2019-04-25T11:39:45.975Z,12.90
2019-04-25T11:40:48.097Z,13.48
2019-04-25T11:41:47.389Z,12.72
2019-04-25T11:42:45.945Z,12.71
2019-04-25T11:43:46.315Z,13.09
2019-04-25T11:44:45.449Z,12.89
2019-04-25T11:45:45.073Z,12.21
2019-04-25T11:46:46.420Z,13.17
2019-04-25T11:47:46.227Z,13.56
2019-04-25T11:48:45.399Z,12.12
2019-04-25T11:49:46.378Z,12.12
2019-04-25T11:50:48.981Z,12.22
2019-04-25T11:51:46.110Z,12.41
2019-04-25T11:52:44.767Z,13.09
2019-04-25T11:53:45.927Z,12.23
2019-04-25T11:54:46.763Z,12.42
2019-04-25T11:55:44.871Z,12.63
2019-04-25T11:56:45.974Z,11.68
2019-04-25T11:57:48.655Z,12.93
2019-04-25T11:58:47.691Z,13.51
2019-04-25T11:59:47.877Z,12.07
2019-04-25T12:00:46.000Z,12.95
2019-04-25T12:01:45.330Z,14.20
2019-04-25T12:02:45.418Z,12.93
2019-04-25T12:03:46.578Z,13.12
2019-04-25T12:04:45.486Z,12.83
2019-04-25T12:05:45.841Z,13.11
2019-04-25T12:06:46.038Z,13.89
2019-04-25T12:07:45.437Z,13.22
2019-04-25T12:08:46.591Z,13.62
2019-04-25T12:09:45.786Z,13.64
2019-04-25T12:10:45.739Z,13.95
2019-04-25T12:11:46.761Z,14.84
2019-04-25T12:12:47.204Z,14.75
2019-04-25T12:13:46.676Z,14.29
2019-04-25T12:14:46.127Z,14.11
2019-04-25T12:15:46.036Z,15.41
2019-04-25T12:16:48.457Z,15.44
2019-04-25T12:17:44.864Z,16.23
2019-04-25T12:18:47.716Z,16.14
2019-04-25T12:19:44.543Z,17.24
2019-04-25T12:20:46.254Z,18.52
2019-04-25T12:21:44.715Z,18.52
2019-04-25T12:22:45.382Z,18.94
2019-04-25T12:23:46.396Z,18.05
2019-04-25T12:24:45.406Z,19.15
2019-04-25T12:25:46.253Z,20.54
2019-04-25T12:26:46.513Z,19.67
2019-04-25T12:27:48.141Z,19.49
2019-04-25T12:28:45.942Z,20.09
2019-04-25T12:29:45.886Z,20.19
2019-04-25T12:30:45.807Z,21.39
2019-04-25T12:31:46.414Z,21.29
2019-04-25T12:32:46.395Z,21.30
2019-04-25T12:33:46.351Z,19.73
2019-04-25T12:34:44.914Z,21.31
2019-04-25T12:35:44.358Z,21.60
2019-04-25T12:36:44.524Z,21.11
2019-04-25T12:37:44.340Z,21.31
2019-04-25T12:38:46.026Z,21.41
2019-04-25T12:39:44.316Z,21.11
2019-04-25T12:40:44.309Z,23.58
2019-04-25T12:41:46.751Z,21.90
2019-04-25T12:42:44.503Z,21.42
2019-04-25T12:43:45.662Z,22.50
2019-04-25T12:44:46.263Z,22.20
2019-04-25T12:45:45.714Z,21.53
2019-04-25T12:46:45.917Z,20.55
2019-04-25T12:47:44.234Z,21.24
2019-04-25T12:48:45.892Z,21.04
2019-04-25T12:49:44.208Z,20.86
2019-04-25T12:50:44.199Z,20.86
2019-04-25T12:51:44.189Z,21.15
2019-04-25T12:52:44.183Z,22.05